首页
METAR-TAF:

METAR-TAF

机场 :

Bluefield, 西維吉尼亞州, 美国

纬度: 37-17-45N, 经度: 081-12-28W, 海拔: 871米

当前天气观测

该预报发布于45分钟前的10:52 UTC
风速3节,风向多变
温度 12°C
湿度 76%
气压 1025 hPa
能見度: 16.1公里
天空无云

METAR: KBLF 191052Z AUTO VRB03KT 10SM CLR 12/08 A3027 RMK AO2 SLP230 T01220083

时间: 07:37 (11:37 UTC)

预报

该预报发布于41分钟前的10:56 UTC
预报有效从19日的 11点(UTC)到 20日的 06点(UTC)
风速7节,风向东转东南
能見度: 10公里
散云层高于1500英尺
短暂存在
从 19日的 11点(UTC)到 19日的 13点(UTC)
多云层高于1500英尺
从 19日的 1300点(UTC)
风速8节,风向东转东南,有时为16节阵风
能見度: 10公里
阴天层高于1300英尺
从 19日的 1500点(UTC)
风速7节,风向东南
能見度: 10公里
散云层高于2000英尺
多云层高于3000英尺
从 19日的 1700点(UTC)
风速8节,风向东南
能見度: 10公里
多云层高于3500英尺
从 19日的 2200点(UTC)
风速6节,风向东转东南
能見度: 10公里
散云层高于4000英尺

TAF: KBLF 191056Z 1911/2006 12007KT P6SM SCT015 TEMPO 1911/1913 BKN015 FM191300 12008G16KT P6SM OVC013 FM191500 13007KT P6SM SCT020 BKN030 FM191700 14008KT P6SM BKN035 FM192200 12006KT P6SM SCT040

超过4000个机场的气象观测和天气预报(METAR&TAF报告)。

可查询的气象台以黄色和红色小点在地图上表示。

将鼠标移到小点上方,可查看气象台名称。

然后点击查看天气观测和预报。

如需切换地图:点击带黑十字的绿色按钮放大地图;点击带横线的绿色按钮缩小地图;或者点击绿色箭头查看邻近地区的地图。


METAR-TAF: